메인 페이지
METAR-TAF:

METAR-TAF

공항 :

남풀라, 모잠비크

위도: 15-06S, 경도: 039-17E, 고도: 438m

현재 날씨관측

예보는 1 시간 10분 전, 06:00시(UTC)에 발표되었습니다.
남남서9kt
온도 21°C
습도 83%
기압 1022 hPa
시정 10km 이상
고도 2000ft 상공 구름 많음

METAR: FQNP 040600Z 20009KT 9999 BKN020 21/18 Q1022

시각: 09:10 (07:10 UTC)

예보

예보는 3 시간 10분 전, 04:00시(UTC)에 발표되었습니다.
예보 대상 시간: 04일 06시부터 05일 12시까지 (UTC)
10kt
시정 10km 이상
고도 2000ft 상공 구름 보통
확률 30% :
일시적
04일 12시부터 04일 18시까지 (UTC)
시정: 5000m
고도 1200ft 상공 구름 보통
고도 1800ft 상공 구름 많음
약한비, 이슬비
전환 중
04일 18시부터 04일 20시까지 (UTC)
서남서8kt

TAF: FQNP 040400Z 0406/0512 17010KT 9999 SCT020 TX27/0413Z TN18/0503Z PROB30 TEMPO 0412/0418 5000 -RADZ SCT012 BKN018 BECMG 0418/0420 24008KT

4,000개 이상의 공항 관측 자료 및 예보 (METAR 및 TAF 보고).

지도상에서 검색 가능한 기상관측소가 노란 점과 빨간 점으로 표시되어 있습니다.

기상관측소 명을 보려면 표시 위로 마우스를 이동하세요.

날씨 관측과 예보를 보려면 클릭하세요.

지도 변경 : 확대하려면 엑스 표시가 있는 녹색 버튼, 축소하려면 빼기 표시가 있는 녹색 버튼, 다음 페이지의 지도를 보려면 녹색 화살표를 클릭하세요.


METAR-TAF: